sensor_id;sensor_type;location;lat;lon;timestamp;P1;durP1;ratioP1;P2;durP2;ratioP2
18265;SDS011;9259;48.194;16.322;2023-03-23T00:01:07;16.77;;;7.37;;
18265;SDS011;9259;48.194;16.322;2023-03-23T00:03:40;18.13;;;7.53;;
18265;SDS011;9259;48.194;16.322;2023-03-23T00:06:09;12.93;;;7.03;;
18265;SDS011;9259;48.194;16.322;2023-03-23T00:08:43;12.37;;;6.47;;
18265;SDS011;9259;48.194;16.322;2023-03-23T00:11:12;16.13;;;6.43;;
18265;SDS011;9259;48.194;16.322;2023-03-23T00:13:42;13.70;;;7.30;;
18265;SDS011;9259;48.194;16.322;2023-03-23T00:16:11;15.83;;;6.70;;
18265;SDS011;9259;48.194;16.322;2023-03-23T00:18:45;13.43;;;6.67;;
18265;SDS011;9259;48.194;16.322;2023-03-23T00:21:15;16.57;;;6.77;;
18265;SDS011;9259;48.194;16.322;2023-03-23T00:23:43;16.53;;;7.43;;
18265;SDS011;9259;48.194;16.322;2023-03-23T00:26:11;14.27;;;7.90;;
18265;SDS011;9259;48.194;16.322;2023-03-23T00:28:40;14.57;;;7.67;;
18265;SDS011;9259;48.194;16.322;2023-03-23T00:31:09;15.90;;;7.63;;
18265;SDS011;9259;48.194;16.322;2023-03-23T00:33:38;20.20;;;8.23;;
18265;SDS011;9259;48.194;16.322;2023-03-23T00:36:09;13.93;;;7.23;;
18265;SDS011;9259;48.194;16.322;2023-03-23T00:38:38;18.33;;;7.60;;
18265;SDS011;9259;48.194;16.322;2023-03-23T00:41:07;16.83;;;7.53;;
18265;SDS011;9259;48.194;16.322;2023-03-23T00:43:37;19.90;;;7.23;;
18265;SDS011;9259;48.194;16.322;2023-03-23T00:46:05;18.47;;;7.83;;
18265;SDS011;9259;48.194;16.322;2023-03-23T00:48:35;16.47;;;7.07;;
18265;SDS011;9259;48.194;16.322;2023-03-23T00:51:07;17.60;;;6.93;;
18265;SDS011;9259;48.194;16.322;2023-03-23T00:53:36;14.77;;;7.07;;
18265;SDS011;9259;48.194;16.322;2023-03-23T00:56:04;15.73;;;6.97;;
18265;SDS011;9259;48.194;16.322;2023-03-23T00:58:33;16.37;;;7.23;;
18265;SDS011;9259;48.194;16.322;2023-03-23T01:01:02;16.93;;;7.83;;
18265;SDS011;9259;48.194;16.322;2023-03-23T01:03:31;17.17;;;6.90;;
18265;SDS011;9259;48.194;16.322;2023-03-23T01:06:04;18.37;;;7.20;;
18265;SDS011;9259;48.194;16.322;2023-03-23T01:08:35;12.83;;;6.53;;
18265;SDS011;9259;48.194;16.322;2023-03-23T01:11:05;13.43;;;6.53;;
18265;SDS011;9259;48.194;16.322;2023-03-23T01:13:33;10.83;;;5.87;;
18265;SDS011;9259;48.194;16.322;2023-03-23T01:16:02;14.03;;;6.40;;
18265;SDS011;9259;48.194;16.322;2023-03-23T01:18:30;12.53;;;5.77;;
18265;SDS011;9259;48.194;16.322;2023-03-23T01:21:02;14.43;;;5.63;;
18265;SDS011;9259;48.194;16.322;2023-03-23T01:23:31;10.67;;;5.37;;
18265;SDS011;9259;48.194;16.322;2023-03-23T01:26:04;10.77;;;5.30;;
18265;SDS011;9259;48.194;16.322;2023-03-23T01:28:32;8.67;;;4.40;;
18265;SDS011;9259;48.194;16.322;2023-03-23T01:31:01;13.90;;;4.83;;
18265;SDS011;9259;48.194;16.322;2023-03-23T01:33:30;8.97;;;4.57;;
18265;SDS011;9259;48.194;16.322;2023-03-23T01:36:02;9.87;;;4.40;;
18265;SDS011;9259;48.194;16.322;2023-03-23T01:38:31;12.97;;;4.40;;
18265;SDS011;9259;48.194;16.322;2023-03-23T01:40:59;9.90;;;4.60;;
18265;SDS011;9259;48.194;16.322;2023-03-23T01:43:29;13.03;;;4.20;;
18265;SDS011;9259;48.194;16.322;2023-03-23T01:45:57;8.60;;;4.77;;
18265;SDS011;9259;48.194;16.322;2023-03-23T01:48:26;8.13;;;4.37;;
18265;SDS011;9259;48.194;16.322;2023-03-23T01:50:57;7.77;;;4.70;;
18265;SDS011;9259;48.194;16.322;2023-03-23T01:53:28;8.80;;;3.97;;
18265;SDS011;9259;48.194;16.322;2023-03-23T01:55:58;7.33;;;4.13;;
18265;SDS011;9259;48.194;16.322;2023-03-23T01:58:29;10.67;;;3.87;;
18265;SDS011;9259;48.194;16.322;2023-03-23T02:01:01;8.27;;;4.10;;
18265;SDS011;9259;48.194;16.322;2023-03-23T02:03:30;8.37;;;4.10;;
18265;SDS011;9259;48.194;16.322;2023-03-23T02:05:59;6.80;;;3.97;;
18265;SDS011;9259;48.194;16.322;2023-03-23T02:08:28;8.60;;;3.93;;
18265;SDS011;9259;48.194;16.322;2023-03-23T02:10:58;9.40;;;4.10;;
18265;SDS011;9259;48.194;16.322;2023-03-23T02:13:26;9.97;;;4.03;;
18265;SDS011;9259;48.194;16.322;2023-03-23T02:15:59;8.60;;;3.97;;
18265;SDS011;9259;48.194;16.322;2023-03-23T02:18:33;8.47;;;3.93;;
18265;SDS011;9259;48.194;16.322;2023-03-23T02:21:19;8.87;;;3.90;;
18265;SDS011;9259;48.194;16.322;2023-03-23T02:23:59;12.50;;;4.37;;
18265;SDS011;9259;48.194;16.322;2023-03-23T02:26:39;7.57;;;4.27;;
18265;SDS011;9259;48.194;16.322;2023-03-23T02:29:22;7.90;;;3.73;;
18265;SDS011;9259;48.194;16.322;2023-03-23T02:32:10;8.50;;;4.23;;
18265;SDS011;9259;48.194;16.322;2023-03-23T02:34:45;10.10;;;4.33;;
18265;SDS011;9259;48.194;16.322;2023-03-23T02:37:18;6.33;;;3.80;;
18265;SDS011;9259;48.194;16.322;2023-03-23T02:39:49;9.90;;;4.43;;
18265;SDS011;9259;48.194;16.322;2023-03-23T02:42:20;7.73;;;3.83;;
18265;SDS011;9259;48.194;16.322;2023-03-23T02:44:50;6.67;;;4.00;;
18265;SDS011;9259;48.194;16.322;2023-03-23T02:47:21;7.30;;;3.80;;
18265;SDS011;9259;48.194;16.322;2023-03-23T02:49:53;9.17;;;4.30;;
18265;SDS011;9259;48.194;16.322;2023-03-23T02:52:22;6.53;;;3.73;;
18265;SDS011;9259;48.194;16.322;2023-03-23T02:54:51;6.83;;;4.13;;
18265;SDS011;9259;48.194;16.322;2023-03-23T02:57:20;10.17;;;4.67;;
18265;SDS011;9259;48.194;16.322;2023-03-23T02:59:49;10.63;;;4.10;;
18265;SDS011;9259;48.194;16.322;2023-03-23T03:02:18;11.00;;;4.40;;
18265;SDS011;9259;48.194;16.322;2023-03-23T03:04:52;7.03;;;4.00;;
18265;SDS011;9259;48.194;16.322;2023-03-23T03:07:32;8.53;;;4.17;;
18265;SDS011;9259;48.194;16.322;2023-03-23T03:10:06;13.27;;;4.30;;
18265;SDS011;9259;48.194;16.322;2023-03-23T03:12:42;9.50;;;4.10;;
18265;SDS011;9259;48.194;16.322;2023-03-23T03:15:17;7.07;;;4.00;;
18265;SDS011;9259;48.194;16.322;2023-03-23T03:17:53;8.57;;;4.20;;
18265;SDS011;9259;48.194;16.322;2023-03-23T03:20:27;6.90;;;4.33;;
18265;SDS011;9259;48.194;16.322;2023-03-23T03:22:56;8.47;;;4.30;;
18265;SDS011;9259;48.194;16.322;2023-03-23T03:25:24;8.97;;;4.30;;
18265;SDS011;9259;48.194;16.322;2023-03-23T03:27:53;10.30;;;4.30;;
18265;SDS011;9259;48.194;16.322;2023-03-23T03:30:23;8.83;;;3.73;;
18265;SDS011;9259;48.194;16.322;2023-03-23T03:32:54;14.10;;;4.20;;
18265;SDS011;9259;48.194;16.322;2023-03-23T03:35:23;8.37;;;3.90;;
18265;SDS011;9259;48.194;16.322;2023-03-23T03:37:53;8.57;;;4.20;;
18265;SDS011;9259;48.194;16.322;2023-03-23T03:40:22;10.33;;;4.43;;
18265;SDS011;9259;48.194;16.322;2023-03-23T03:42:50;8.63;;;4.57;;
18265;SDS011;9259;48.194;16.322;2023-03-23T03:45:19;6.73;;;4.10;;
18265;SDS011;9259;48.194;16.322;2023-03-23T03:47:47;7.90;;;4.17;;
18265;SDS011;9259;48.194;16.322;2023-03-23T03:50:15;10.80;;;3.87;;
18265;SDS011;9259;48.194;16.322;2023-03-23T03:52:43;9.83;;;4.03;;
18265;SDS011;9259;48.194;16.322;2023-03-23T03:55:13;13.53;;;4.47;;
18265;SDS011;9259;48.194;16.322;2023-03-23T03:57:42;9.33;;;4.00;;
18265;SDS011;9259;48.194;16.322;2023-03-23T04:00:11;8.93;;;4.17;;
18265;SDS011;9259;48.194;16.322;2023-03-23T04:02:41;7.93;;;4.03;;
18265;SDS011;9259;48.194;16.322;2023-03-23T04:05:09;6.97;;;3.97;;
18265;SDS011;9259;48.194;16.322;2023-03-23T04:07:37;9.87;;;4.30;;
18265;SDS011;9259;48.194;16.322;2023-03-23T04:10:08;9.70;;;4.40;;
18265;SDS011;9259;48.194;16.322;2023-03-23T04:12:38;8.63;;;4.30;;
18265;SDS011;9259;48.194;16.322;2023-03-23T04:15:07;7.07;;;3.93;;
18265;SDS011;9259;48.194;16.322;2023-03-23T04:17:36;8.80;;;3.77;;
18265;SDS011;9259;48.194;16.322;2023-03-23T04:20:06;8.67;;;4.17;;
18265;SDS011;9259;48.194;16.322;2023-03-23T04:22:41;10.33;;;4.17;;
18265;SDS011;9259;48.194;16.322;2023-03-23T04:25:10;8.23;;;4.23;;
18265;SDS011;9259;48.194;16.322;2023-03-23T04:27:41;11.10;;;3.87;;
18265;SDS011;9259;48.194;16.322;2023-03-23T04:30:12;10.60;;;4.63;;
18265;SDS011;9259;48.194;16.322;2023-03-23T04:32:41;10.53;;;4.37;;
18265;SDS011;9259;48.194;16.322;2023-03-23T04:35:09;7.60;;;3.90;;
18265;SDS011;9259;48.194;16.322;2023-03-23T04:37:40;8.53;;;4.43;;
18265;SDS011;9259;48.194;16.322;2023-03-23T04:40:09;8.80;;;3.90;;
18265;SDS011;9259;48.194;16.322;2023-03-23T04:42:42;9.83;;;3.47;;
18265;SDS011;9259;48.194;16.322;2023-03-23T04:45:12;10.47;;;4.90;;
18265;SDS011;9259;48.194;16.322;2023-03-23T04:47:41;8.30;;;4.20;;
18265;SDS011;9259;48.194;16.322;2023-03-23T04:50:19;9.20;;;3.60;;
18265;SDS011;9259;48.194;16.322;2023-03-23T04:52:50;8.33;;;4.00;;
18265;SDS011;9259;48.194;16.322;2023-03-23T04:55:20;7.50;;;4.03;;
18265;SDS011;9259;48.194;16.322;2023-03-23T04:57:49;9.27;;;3.80;;
18265;SDS011;9259;48.194;16.322;2023-03-23T05:00:18;12.47;;;4.13;;
18265;SDS011;9259;48.194;16.322;2023-03-23T05:02:47;9.77;;;4.93;;
18265;SDS011;9259;48.194;16.322;2023-03-23T05:05:17;9.17;;;4.40;;
18265;SDS011;9259;48.194;16.322;2023-03-23T05:07:46;9.63;;;4.00;;
18265;SDS011;9259;48.194;16.322;2023-03-23T05:10:15;8.97;;;4.73;;
18265;SDS011;9259;48.194;16.322;2023-03-23T05:12:43;9.43;;;4.30;;
18265;SDS011;9259;48.194;16.322;2023-03-23T05:15:13;12.47;;;4.90;;
18265;SDS011;9259;48.194;16.322;2023-03-23T05:17:43;7.93;;;4.47;;
18265;SDS011;9259;48.194;16.322;2023-03-23T05:20:11;10.83;;;4.17;;
18265;SDS011;9259;48.194;16.322;2023-03-23T05:22:43;9.90;;;4.27;;
18265;SDS011;9259;48.194;16.322;2023-03-23T05:25:13;9.60;;;4.33;;
18265;SDS011;9259;48.194;16.322;2023-03-23T05:27:44;8.23;;;4.37;;
18265;SDS011;9259;48.194;16.322;2023-03-23T05:30:19;12.77;;;4.17;;
18265;SDS011;9259;48.194;16.322;2023-03-23T05:32:48;8.43;;;4.43;;
18265;SDS011;9259;48.194;16.322;2023-03-23T05:35:17;10.50;;;5.00;;
18265;SDS011;9259;48.194;16.322;2023-03-23T05:37:46;19.93;;;5.20;;
18265;SDS011;9259;48.194;16.322;2023-03-23T05:40:14;11.53;;;4.53;;
18265;SDS011;9259;48.194;16.322;2023-03-23T05:42:42;10.77;;;4.20;;
18265;SDS011;9259;48.194;16.322;2023-03-23T05:45:11;13.23;;;4.93;;
18265;SDS011;9259;48.194;16.322;2023-03-23T05:47:41;11.20;;;4.50;;
18265;SDS011;9259;48.194;16.322;2023-03-23T05:50:09;12.27;;;4.30;;
18265;SDS011;9259;48.194;16.322;2023-03-23T05:52:39;9.17;;;4.53;;
18265;SDS011;9259;48.194;16.322;2023-03-23T05:55:08;7.33;;;4.70;;
18265;SDS011;9259;48.194;16.322;2023-03-23T05:57:36;11.87;;;4.53;;
18265;SDS011;9259;48.194;16.322;2023-03-23T06:00:05;10.27;;;4.67;;
18265;SDS011;9259;48.194;16.322;2023-03-23T06:02:46;12.20;;;4.63;;
18265;SDS011;9259;48.194;16.322;2023-03-23T06:05:15;14.00;;;4.70;;
18265;SDS011;9259;48.194;16.322;2023-03-23T06:07:43;9.90;;;4.43;;
18265;SDS011;9259;48.194;16.322;2023-03-23T06:10:11;7.37;;;4.10;;
18265;SDS011;9259;48.194;16.322;2023-03-23T06:12:40;9.93;;;4.40;;
18265;SDS011;9259;48.194;16.322;2023-03-23T06:15:09;12.50;;;4.43;;
18265;SDS011;9259;48.194;16.322;2023-03-23T06:17:38;12.77;;;4.87;;
18265;SDS011;9259;48.194;16.322;2023-03-23T06:20:08;11.10;;;4.20;;
18265;SDS011;9259;48.194;16.322;2023-03-23T06:22:37;14.00;;;5.00;;
18265;SDS011;9259;48.194;16.322;2023-03-23T06:25:07;8.60;;;4.53;;
18265;SDS011;9259;48.194;16.322;2023-03-23T06:27:36;9.43;;;4.90;;
18265;SDS011;9259;48.194;16.322;2023-03-23T06:30:05;7.97;;;4.70;;
18265;SDS011;9259;48.194;16.322;2023-03-23T06:32:34;9.80;;;4.63;;
18265;SDS011;9259;48.194;16.322;2023-03-23T06:35:02;9.77;;;4.87;;
18265;SDS011;9259;48.194;16.322;2023-03-23T06:37:33;15.33;;;5.03;;
18265;SDS011;9259;48.194;16.322;2023-03-23T06:40:01;12.50;;;5.43;;
18265;SDS011;9259;48.194;16.322;2023-03-23T06:42:31;11.53;;;4.73;;
18265;SDS011;9259;48.194;16.322;2023-03-23T06:45:00;12.83;;;5.10;;
18265;SDS011;9259;48.194;16.322;2023-03-23T06:47:29;11.53;;;5.90;;
18265;SDS011;9259;48.194;16.322;2023-03-23T06:49:58;13.37;;;5.50;;
18265;SDS011;9259;48.194;16.322;2023-03-23T06:52:26;10.40;;;5.60;;
18265;SDS011;9259;48.194;16.322;2023-03-23T06:54:55;10.10;;;4.90;;
18265;SDS011;9259;48.194;16.322;2023-03-23T06:57:24;16.57;;;5.70;;
18265;SDS011;9259;48.194;16.322;2023-03-23T06:59:52;13.20;;;5.63;;
18265;SDS011;9259;48.194;16.322;2023-03-23T07:02:20;9.93;;;5.90;;
18265;SDS011;9259;48.194;16.322;2023-03-23T07:04:49;12.13;;;5.50;;
18265;SDS011;9259;48.194;16.322;2023-03-23T07:07:19;19.00;;;6.67;;
18265;SDS011;9259;48.194;16.322;2023-03-23T07:09:47;14.17;;;6.23;;
18265;SDS011;9259;48.194;16.322;2023-03-23T07:12:17;13.30;;;5.60;;
18265;SDS011;9259;48.194;16.322;2023-03-23T07:14:45;9.80;;;5.77;;
18265;SDS011;9259;48.194;16.322;2023-03-23T07:17:13;15.07;;;6.13;;
18265;SDS011;9259;48.194;16.322;2023-03-23T07:19:42;13.57;;;6.40;;
18265;SDS011;9259;48.194;16.322;2023-03-23T07:22:10;16.20;;;5.80;;
18265;SDS011;9259;48.194;16.322;2023-03-23T07:24:38;14.17;;;6.57;;
18265;SDS011;9259;48.194;16.322;2023-03-23T07:27:06;21.27;;;6.97;;
18265;SDS011;9259;48.194;16.322;2023-03-23T07:29:36;13.10;;;6.53;;
18265;SDS011;9259;48.194;16.322;2023-03-23T07:32:05;14.37;;;6.50;;
18265;SDS011;9259;48.194;16.322;2023-03-23T07:34:36;12.70;;;6.40;;
18265;SDS011;9259;48.194;16.322;2023-03-23T07:37:04;9.83;;;5.97;;
18265;SDS011;9259;48.194;16.322;2023-03-23T07:39:33;12.10;;;6.30;;
18265;SDS011;9259;48.194;16.322;2023-03-23T07:42:01;14.13;;;6.67;;
18265;SDS011;9259;48.194;16.322;2023-03-23T07:44:30;19.87;;;7.80;;
18265;SDS011;9259;48.194;16.322;2023-03-23T07:46:59;25.27;;;8.63;;
18265;SDS011;9259;48.194;16.322;2023-03-23T07:49:27;12.60;;;7.73;;
18265;SDS011;9259;48.194;16.322;2023-03-23T07:51:56;22.63;;;8.43;;
18265;SDS011;9259;48.194;16.322;2023-03-23T07:54:27;23.17;;;8.37;;
18265;SDS011;9259;48.194;16.322;2023-03-23T07:56:55;15.93;;;7.30;;
18265;SDS011;9259;48.194;16.322;2023-03-23T07:59:23;17.93;;;7.27;;
18265;SDS011;9259;48.194;16.322;2023-03-23T08:01:51;15.57;;;7.13;;
18265;SDS011;9259;48.194;16.322;2023-03-23T08:04:21;19.37;;;7.90;;
18265;SDS011;9259;48.194;16.322;2023-03-23T08:06:49;15.40;;;7.60;;
18265;SDS011;9259;48.194;16.322;2023-03-23T08:09:17;13.63;;;8.07;;
18265;SDS011;9259;48.194;16.322;2023-03-23T08:11:45;16.33;;;7.73;;
18265;SDS011;9259;48.194;16.322;2023-03-23T08:14:14;16.27;;;7.32;;
18265;SDS011;9259;48.194;16.322;2023-03-23T08:16:42;19.83;;;7.93;;
18265;SDS011;9259;48.194;16.322;2023-03-23T08:19:10;14.57;;;6.95;;
18265;SDS011;9259;48.194;16.322;2023-03-23T08:21:39;22.25;;;7.60;;
18265;SDS011;9259;48.194;16.322;2023-03-23T08:24:07;23.73;;;8.48;;
18265;SDS011;9259;48.194;16.322;2023-03-23T08:26:37;11.87;;;7.37;;
18265;SDS011;9259;48.194;16.322;2023-03-23T08:29:05;14.93;;;8.33;;
18265;SDS011;9259;48.194;16.322;2023-03-23T08:31:33;22.10;;;8.38;;
18265;SDS011;9259;48.194;16.322;2023-03-23T08:34:03;15.57;;;8.43;;
18265;SDS011;9259;48.194;16.322;2023-03-23T08:36:31;20.70;;;8.95;;
18265;SDS011;9259;48.194;16.322;2023-03-23T08:39:01;17.40;;;8.32;;
18265;SDS011;9259;48.194;16.322;2023-03-23T08:41:31;15.98;;;8.75;;
18265;SDS011;9259;48.194;16.322;2023-03-23T08:43:59;19.02;;;8.95;;
18265;SDS011;9259;48.194;16.322;2023-03-23T08:46:27;19.30;;;9.18;;
18265;SDS011;9259;48.194;16.322;2023-03-23T08:48:55;19.48;;;8.68;;
18265;SDS011;9259;48.194;16.322;2023-03-23T08:51:23;16.98;;;8.93;;
18265;SDS011;9259;48.194;16.322;2023-03-23T08:53:52;17.42;;;9.10;;
18265;SDS011;9259;48.194;16.322;2023-03-23T08:56:21;17.67;;;9.23;;
18265;SDS011;9259;48.194;16.322;2023-03-23T08:58:49;25.45;;;10.00;;
18265;SDS011;9259;48.194;16.322;2023-03-23T09:01:18;22.73;;;9.55;;
18265;SDS011;9259;48.194;16.322;2023-03-23T09:03:46;17.67;;;10.02;;
18265;SDS011;9259;48.194;16.322;2023-03-23T09:06:14;23.58;;;10.18;;
18265;SDS011;9259;48.194;16.322;2023-03-23T09:08:42;28.98;;;10.13;;
18265;SDS011;9259;48.194;16.322;2023-03-23T09:11:10;22.35;;;9.75;;
18265;SDS011;9259;48.194;16.322;2023-03-23T09:13:40;22.05;;;9.63;;
18265;SDS011;9259;48.194;16.322;2023-03-23T09:16:08;22.27;;;10.15;;
18265;SDS011;9259;48.194;16.322;2023-03-23T09:18:36;20.23;;;9.20;;
18265;SDS011;9259;48.194;16.322;2023-03-23T09:21:05;20.10;;;9.05;;
18265;SDS011;9259;48.194;16.322;2023-03-23T09:23:34;19.88;;;9.88;;
18265;SDS011;9259;48.194;16.322;2023-03-23T09:26:03;20.50;;;9.20;;
18265;SDS011;9259;48.194;16.322;2023-03-23T09:28:32;19.45;;;9.85;;
18265;SDS011;9259;48.194;16.322;2023-03-23T09:31:01;19.23;;;9.50;;
18265;SDS011;9259;48.194;16.322;2023-03-23T09:33:30;18.63;;;9.48;;
18265;SDS011;9259;48.194;16.322;2023-03-23T09:35:59;19.95;;;9.95;;
18265;SDS011;9259;48.194;16.322;2023-03-23T09:38:28;22.75;;;9.98;;
18265;SDS011;9259;48.194;16.322;2023-03-23T09:41:00;22.48;;;10.43;;
18265;SDS011;9259;48.194;16.322;2023-03-23T09:43:45;29.15;;;11.52;;
18265;SDS011;9259;48.194;16.322;2023-03-23T09:46:32;22.60;;;9.93;;
18265;SDS011;9259;48.194;16.322;2023-03-23T09:49:12;25.88;;;10.25;;
18265;SDS011;9259;48.194;16.322;2023-03-23T09:51:46;20.65;;;9.93;;
18265;SDS011;9259;48.194;16.322;2023-03-23T09:54:20;15.82;;;9.43;;
18265;SDS011;9259;48.194;16.322;2023-03-23T09:56:53;17.30;;;9.65;;
18265;SDS011;9259;48.194;16.322;2023-03-23T09:59:23;20.67;;;9.27;;
18265;SDS011;9259;48.194;16.322;2023-03-23T10:02:07;17.05;;;8.57;;
18265;SDS011;9259;48.194;16.322;2023-03-23T10:04:43;18.48;;;8.93;;
18265;SDS011;9259;48.194;16.322;2023-03-23T10:07:14;15.32;;;8.80;;
18265;SDS011;9259;48.194;16.322;2023-03-23T10:09:45;16.08;;;8.60;;
18265;SDS011;9259;48.194;16.322;2023-03-23T10:12:21;15.55;;;8.68;;
18265;SDS011;9259;48.194;16.322;2023-03-23T10:14:59;18.38;;;8.93;;
18265;SDS011;9259;48.194;16.322;2023-03-23T10:17:39;16.95;;;8.15;;
18265;SDS011;9259;48.194;16.322;2023-03-23T10:20:18;21.65;;;8.98;;
18265;SDS011;9259;48.194;16.322;2023-03-23T10:22:56;15.93;;;8.27;;
18265;SDS011;9259;48.194;16.322;2023-03-23T10:25:34;13.95;;;7.65;;
18265;SDS011;9259;48.194;16.322;2023-03-23T10:28:05;15.90;;;8.40;;
18265;SDS011;9259;48.194;16.322;2023-03-23T10:30:39;17.20;;;7.57;;
18265;SDS011;9259;48.194;16.322;2023-03-23T10:33:11;15.93;;;7.68;;
18265;SDS011;9259;48.194;16.322;2023-03-23T10:35:54;19.25;;;8.10;;
18265;SDS011;9259;48.194;16.322;2023-03-23T10:38:29;16.70;;;7.82;;
18265;SDS011;9259;48.194;16.322;2023-03-23T10:41:03;25.45;;;8.73;;
18265;SDS011;9259;48.194;16.322;2023-03-23T10:43:38;20.77;;;8.20;;
18265;SDS011;9259;48.194;16.322;2023-03-23T10:46:10;20.63;;;8.52;;
18265;SDS011;9259;48.194;16.322;2023-03-23T10:48:51;22.50;;;8.95;;
18265;SDS011;9259;48.194;16.322;2023-03-23T10:51:23;21.23;;;8.57;;
18265;SDS011;9259;48.194;16.322;2023-03-23T10:54:00;18.73;;;8.35;;
18265;SDS011;9259;48.194;16.322;2023-03-23T10:56:34;13.95;;;7.68;;
18265;SDS011;9259;48.194;16.322;2023-03-23T10:59:11;19.33;;;7.90;;
18265;SDS011;9259;48.194;16.322;2023-03-23T11:01:43;17.92;;;7.43;;
18265;SDS011;9259;48.194;16.322;2023-03-23T11:04:15;15.30;;;7.70;;
18265;SDS011;9259;48.194;16.322;2023-03-23T11:06:45;17.85;;;7.85;;
18265;SDS011;9259;48.194;16.322;2023-03-23T11:09:16;15.32;;;8.48;;
18265;SDS011;9259;48.194;16.322;2023-03-23T11:11:48;18.67;;;10.27;;
18265;SDS011;9259;48.194;16.322;2023-03-23T11:14:18;20.23;;;8.90;;
18265;SDS011;9259;48.194;16.322;2023-03-23T11:16:51;16.17;;;8.88;;
18265;SDS011;9259;48.194;16.322;2023-03-23T11:19:23;14.30;;;8.63;;
18265;SDS011;9259;48.194;16.322;2023-03-23T11:21:53;11.40;;;7.03;;
18265;SDS011;9259;48.194;16.322;2023-03-23T11:24:25;9.40;;;5.55;;
18265;SDS011;9259;48.194;16.322;2023-03-23T11:26:53;17.83;;;5.75;;
18265;SDS011;9259;48.194;16.322;2023-03-23T11:29:24;19.02;;;5.47;;
18265;SDS011;9259;48.194;16.322;2023-03-23T11:32:02;13.52;;;5.50;;
18265;SDS011;9259;48.194;16.322;2023-03-23T11:34:36;13.38;;;6.15;;
18265;SDS011;9259;48.194;16.322;2023-03-23T11:37:09;11.05;;;5.57;;
18265;SDS011;9259;48.194;16.322;2023-03-23T11:39:54;11.90;;;5.28;;
18265;SDS011;9259;48.194;16.322;2023-03-23T11:42:24;12.90;;;5.00;;
18265;SDS011;9259;48.194;16.322;2023-03-23T11:45:13;14.30;;;4.80;;
18265;SDS011;9259;48.194;16.322;2023-03-23T11:50:47;12.93;;;5.00;;
18265;SDS011;9259;48.194;16.322;2023-03-23T11:56:17;9.00;;;5.13;;
18265;SDS011;9259;48.194;16.322;2023-03-23T11:58:52;13.00;;;5.38;;
18265;SDS011;9259;48.194;16.322;2023-03-23T12:01:41;10.10;;;4.85;;
18265;SDS011;9259;48.194;16.322;2023-03-23T12:04:23;16.98;;;4.90;;
18265;SDS011;9259;48.194;16.322;2023-03-23T12:07:21;10.27;;;5.28;;
18265;SDS011;9259;48.194;16.322;2023-03-23T12:10:21;10.90;;;5.22;;
18265;SDS011;9259;48.194;16.322;2023-03-23T12:12:57;11.55;;;5.50;;
18265;SDS011;9259;48.194;16.322;2023-03-23T12:15:41;10.23;;;5.63;;
18265;SDS011;9259;48.194;16.322;2023-03-23T12:18:18;12.68;;;6.28;;
18265;SDS011;9259;48.194;16.322;2023-03-23T12:21:00;13.73;;;6.75;;
18265;SDS011;9259;48.194;16.322;2023-03-23T12:23:44;10.73;;;5.13;;
18265;SDS011;9259;48.194;16.322;2023-03-23T12:26:19;13.25;;;5.43;;
18265;SDS011;9259;48.194;16.322;2023-03-23T12:28:57;10.88;;;5.57;;
18265;SDS011;9259;48.194;16.322;2023-03-23T12:31:49;12.43;;;5.57;;
18265;SDS011;9259;48.194;16.322;2023-03-23T12:34:44;10.65;;;5.60;;
18265;SDS011;9259;48.194;16.322;2023-03-23T12:37:29;13.25;;;5.68;;
18265;SDS011;9259;48.194;16.322;2023-03-23T12:43:13;12.02;;;6.25;;
18265;SDS011;9259;48.194;16.322;2023-03-23T12:45:50;11.10;;;5.47;;
18265;SDS011;9259;48.194;16.322;2023-03-23T12:48:26;15.73;;;6.00;;
18265;SDS011;9259;48.194;16.322;2023-03-23T12:51:03;10.57;;;5.28;;
18265;SDS011;9259;48.194;16.322;2023-03-23T12:53:42;15.85;;;5.63;;
18265;SDS011;9259;48.194;16.322;2023-03-23T12:56:21;12.75;;;6.05;;
18265;SDS011;9259;48.194;16.322;2023-03-23T12:58:58;14.07;;;5.45;;
18265;SDS011;9259;48.194;16.322;2023-03-23T13:01:38;11.02;;;5.55;;
18265;SDS011;9259;48.194;16.322;2023-03-23T13:04:11;13.80;;;5.18;;
18265;SDS011;9259;48.194;16.322;2023-03-23T13:06:43;8.80;;;5.20;;
18265;SDS011;9259;48.194;16.322;2023-03-23T13:09:14;10.85;;;5.25;;
18265;SDS011;9259;48.194;16.322;2023-03-23T13:11:47;12.18;;;5.93;;
18265;SDS011;9259;48.194;16.322;2023-03-23T13:14:20;11.70;;;5.28;;
18265;SDS011;9259;48.194;16.322;2023-03-23T13:16:55;10.65;;;4.80;;
18265;SDS011;9259;48.194;16.322;2023-03-23T13:19:36;9.80;;;4.45;;
18265;SDS011;9259;48.194;16.322;2023-03-23T13:22:17;8.45;;;5.55;;
18265;SDS011;9259;48.194;16.322;2023-03-23T13:24:51;9.05;;;4.57;;
18265;SDS011;9259;48.194;16.322;2023-03-23T13:27:24;7.53;;;4.22;;
18265;SDS011;9259;48.194;16.322;2023-03-23T13:29:54;14.55;;;4.60;;
18265;SDS011;9259;48.194;16.322;2023-03-23T13:32:29;10.18;;;4.90;;
18265;SDS011;9259;48.194;16.322;2023-03-23T13:35:02;9.25;;;5.07;;
18265;SDS011;9259;48.194;16.322;2023-03-23T13:37:40;10.23;;;4.40;;
18265;SDS011;9259;48.194;16.322;2023-03-23T13:40:15;13.07;;;4.28;;
18265;SDS011;9259;48.194;16.322;2023-03-23T13:42:59;5.85;;;4.03;;
18265;SDS011;9259;48.194;16.322;2023-03-23T13:45:36;12.98;;;4.15;;
18265;SDS011;9259;48.194;16.322;2023-03-23T13:48:19;6.35;;;3.97;;
18265;SDS011;9259;48.194;16.322;2023-03-23T13:50:51;8.23;;;4.57;;
18265;SDS011;9259;48.194;16.322;2023-03-23T13:53:23;10.02;;;4.10;;
18265;SDS011;9259;48.194;16.322;2023-03-23T13:56:05;11.00;;;4.30;;
18265;SDS011;9259;48.194;16.322;2023-03-23T13:58:45;13.25;;;4.05;;
18265;SDS011;9259;48.194;16.322;2023-03-23T14:01:18;7.63;;;3.67;;
18265;SDS011;9259;48.194;16.322;2023-03-23T14:04:03;5.55;;;3.40;;
18265;SDS011;9259;48.194;16.322;2023-03-23T14:06:34;6.70;;;3.53;;
18265;SDS011;9259;48.194;16.322;2023-03-23T14:09:04;12.05;;;3.65;;
18265;SDS011;9259;48.194;16.322;2023-03-23T14:11:44;18.80;;;4.35;;
18265;SDS011;9259;48.194;16.322;2023-03-23T14:14:20;7.63;;;3.75;;
18265;SDS011;9259;48.194;16.322;2023-03-23T14:16:53;10.60;;;4.07;;
18265;SDS011;9259;48.194;16.322;2023-03-23T14:19:36;10.75;;;3.53;;
18265;SDS011;9259;48.194;16.322;2023-03-23T14:22:16;8.48;;;3.50;;
18265;SDS011;9259;48.194;16.322;2023-03-23T14:24:46;5.43;;;3.40;;
18265;SDS011;9259;48.194;16.322;2023-03-23T14:27:16;5.82;;;3.15;;
18265;SDS011;9259;48.194;16.322;2023-03-23T14:29:50;10.60;;;3.70;;
18265;SDS011;9259;48.194;16.322;2023-03-23T14:32:25;6.93;;;3.40;;
18265;SDS011;9259;48.194;16.322;2023-03-23T14:34:57;8.27;;;3.20;;
18265;SDS011;9259;48.194;16.322;2023-03-23T14:37:26;16.33;;;3.65;;
18265;SDS011;9259;48.194;16.322;2023-03-23T14:39:55;8.98;;;3.47;;
18265;SDS011;9259;48.194;16.322;2023-03-23T14:42:25;7.95;;;3.45;;
18265;SDS011;9259;48.194;16.322;2023-03-23T14:44:58;9.13;;;3.25;;
18265;SDS011;9259;48.194;16.322;2023-03-23T14:47:29;7.10;;;3.05;;
18265;SDS011;9259;48.194;16.322;2023-03-23T14:50:02;8.30;;;3.33;;
18265;SDS011;9259;48.194;16.322;2023-03-23T14:52:34;5.68;;;2.78;;
18265;SDS011;9259;48.194;16.322;2023-03-23T14:55:10;10.43;;;3.10;;
18265;SDS011;9259;48.194;16.322;2023-03-23T14:57:41;8.25;;;2.63;;
18265;SDS011;9259;48.194;16.322;2023-03-23T15:00:13;6.43;;;2.78;;
18265;SDS011;9259;48.194;16.322;2023-03-23T15:02:43;5.05;;;2.92;;
18265;SDS011;9259;48.194;16.322;2023-03-23T15:05:15;4.47;;;2.50;;
18265;SDS011;9259;48.194;16.322;2023-03-23T15:07:47;3.95;;;2.40;;
18265;SDS011;9259;48.194;16.322;2023-03-23T15:10:21;4.25;;;2.75;;
18265;SDS011;9259;48.194;16.322;2023-03-23T15:12:50;3.53;;;2.53;;
18265;SDS011;9259;48.194;16.322;2023-03-23T15:15:26;7.68;;;2.63;;